sensor_id;sensor_type;location;lat;lon;timestamp;pressure;altitude;pressure_sealevel;temperature
30001;BMP280;16845;48.670;9.000;2023-08-07T00:01:45;95404.75;;;10.56
30001;BMP280;16845;48.670;9.000;2023-08-07T00:04:12;95405.44;;;10.61
30001;BMP280;16845;48.670;9.000;2023-08-07T00:06:39;95412.09;;;10.62
30001;BMP280;16845;48.670;9.000;2023-08-07T00:09:06;95412.94;;;10.62
30001;BMP280;16845;48.670;9.000;2023-08-07T00:11:32;95408.06;;;10.58
30001;BMP280;16845;48.670;9.000;2023-08-07T00:13:59;95409.97;;;10.50
30001;BMP280;16845;48.670;9.000;2023-08-07T00:16:26;95408.13;;;10.55
30001;BMP280;16845;48.670;9.000;2023-08-07T00:18:53;95409.69;;;10.59
30001;BMP280;16845;48.670;9.000;2023-08-07T00:21:19;95401.59;;;10.49
30001;BMP280;16845;48.670;9.000;2023-08-07T00:23:47;95412.59;;;10.47
30001;BMP280;16845;48.670;9.000;2023-08-07T00:26:13;95413.34;;;10.49
30001;BMP280;16845;48.670;9.000;2023-08-07T00:28:40;95412.19;;;10.59
30001;BMP280;16845;48.670;9.000;2023-08-07T00:31:06;95417.28;;;10.56
30001;BMP280;16845;48.670;9.000;2023-08-07T00:33:33;95409.34;;;10.43
30001;BMP280;16845;48.670;9.000;2023-08-07T00:36:00;95412.66;;;10.44
30001;BMP280;16845;48.670;9.000;2023-08-07T00:38:26;95413.84;;;10.60
30001;BMP280;16845;48.670;9.000;2023-08-07T00:40:54;95416.44;;;10.57
30001;BMP280;16845;48.670;9.000;2023-08-07T00:43:21;95424.19;;;10.49
30001;BMP280;16845;48.670;9.000;2023-08-07T00:45:47;95423.28;;;10.52
30001;BMP280;16845;48.670;9.000;2023-08-07T00:48:14;95425.75;;;10.53
30001;BMP280;16845;48.670;9.000;2023-08-07T00:50:44;95417.66;;;10.44
30001;BMP280;16845;48.670;9.000;2023-08-07T00:53:13;95424.25;;;10.48
30001;BMP280;16845;48.670;9.000;2023-08-07T00:55:40;95422.66;;;10.45
30001;BMP280;16845;48.670;9.000;2023-08-07T00:58:09;95435.97;;;10.47
30001;BMP280;16845;48.670;9.000;2023-08-07T01:00:36;95431.78;;;10.48
30001;BMP280;16845;48.670;9.000;2023-08-07T01:03:05;95434.94;;;10.53
30001;BMP280;16845;48.670;9.000;2023-08-07T01:05:31;95441.22;;;10.66
30001;BMP280;16845;48.670;9.000;2023-08-07T01:07:58;95438.44;;;10.49
30001;BMP280;16845;48.670;9.000;2023-08-07T01:10:33;95437.59;;;10.48
30001;BMP280;16845;48.670;9.000;2023-08-07T01:13:06;95435.69;;;10.56
30001;BMP280;16845;48.670;9.000;2023-08-07T01:15:37;95439.19;;;10.51
30001;BMP280;16845;48.670;9.000;2023-08-07T01:18:06;95443.19;;;10.58
30001;BMP280;16845;48.670;9.000;2023-08-07T01:20:33;95444.88;;;10.56
30001;BMP280;16845;48.670;9.000;2023-08-07T01:23:01;95438.56;;;10.44
30001;BMP280;16845;48.670;9.000;2023-08-07T01:25:28;95443.31;;;10.53
30001;BMP280;16845;48.670;9.000;2023-08-07T01:28:00;95438.81;;;10.63
30001;BMP280;16845;48.670;9.000;2023-08-07T01:30:33;95439.97;;;10.53
30001;BMP280;16845;48.670;9.000;2023-08-07T01:33:06;95440.75;;;10.55
30001;BMP280;16845;48.670;9.000;2023-08-07T01:35:41;95439.81;;;10.59
30001;BMP280;16845;48.670;9.000;2023-08-07T01:38:10;95438.34;;;10.78
30001;BMP280;16845;48.670;9.000;2023-08-07T01:40:39;95445.31;;;10.70
30001;BMP280;16845;48.670;9.000;2023-08-07T01:43:05;95449.84;;;10.59
30001;BMP280;16845;48.670;9.000;2023-08-07T01:45:32;95452.09;;;10.66
30001;BMP280;16845;48.670;9.000;2023-08-07T01:47:59;95457.75;;;10.73
30001;BMP280;16845;48.670;9.000;2023-08-07T01:50:26;95451.38;;;10.63
30001;BMP280;16845;48.670;9.000;2023-08-07T01:52:52;95454.41;;;10.72
30001;BMP280;16845;48.670;9.000;2023-08-07T01:55:23;95455.84;;;10.81
30001;BMP280;16845;48.670;9.000;2023-08-07T01:57:49;95456.78;;;10.77
30001;BMP280;16845;48.670;9.000;2023-08-07T02:00:16;95451.59;;;10.83
30001;BMP280;16845;48.670;9.000;2023-08-07T02:02:43;95453.22;;;10.84
30001;BMP280;16845;48.670;9.000;2023-08-07T02:05:10;95456.34;;;10.92
30001;BMP280;16845;48.670;9.000;2023-08-07T02:07:36;95458.84;;;10.92
30001;BMP280;16845;48.670;9.000;2023-08-07T02:10:03;95452.81;;;10.97
30001;BMP280;16845;48.670;9.000;2023-08-07T02:12:31;95451.69;;;10.80
30001;BMP280;16845;48.670;9.000;2023-08-07T02:14:58;95458.91;;;10.89
30001;BMP280;16845;48.670;9.000;2023-08-07T02:17:25;95458.53;;;11.01
30001;BMP280;16845;48.670;9.000;2023-08-07T02:19:52;95459.66;;;10.92
30001;BMP280;16845;48.670;9.000;2023-08-07T02:22:18;95458.91;;;10.89
30001;BMP280;16845;48.670;9.000;2023-08-07T02:24:45;95466.13;;;10.99
30001;BMP280;16845;48.670;9.000;2023-08-07T02:27:12;95470.25;;;11.02
30001;BMP280;16845;48.670;9.000;2023-08-07T02:29:39;95474.91;;;11.12
30001;BMP280;16845;48.670;9.000;2023-08-07T02:32:06;95471.66;;;11.09
30001;BMP280;16845;48.670;9.000;2023-08-07T02:34:33;95478.59;;;11.01
30001;BMP280;16845;48.670;9.000;2023-08-07T02:37:00;95476.78;;;11.06
30001;BMP280;16845;48.670;9.000;2023-08-07T02:39:26;95479.72;;;11.18
30001;BMP280;16845;48.670;9.000;2023-08-07T02:41:53;95472.72;;;11.28
30001;BMP280;16845;48.670;9.000;2023-08-07T02:44:20;95477.59;;;11.06
30001;BMP280;16845;48.670;9.000;2023-08-07T02:46:47;95470.13;;;11.05
30001;BMP280;16845;48.670;9.000;2023-08-07T02:49:14;95473.91;;;11.18
30001;BMP280;16845;48.670;9.000;2023-08-07T02:51:40;95481.47;;;11.16
30001;BMP280;16845;48.670;9.000;2023-08-07T02:54:07;95472.53;;;11.08
30001;BMP280;16845;48.670;9.000;2023-08-07T02:56:34;95480.81;;;11.11
30001;BMP280;16845;48.670;9.000;2023-08-07T02:59:00;95475.91;;;11.07
30001;BMP280;16845;48.670;9.000;2023-08-07T03:01:27;95478.44;;;11.07
30001;BMP280;16845;48.670;9.000;2023-08-07T03:03:55;95479.16;;;11.10
30001;BMP280;16845;48.670;9.000;2023-08-07T03:06:21;95478.44;;;11.07
30001;BMP280;16845;48.670;9.000;2023-08-07T03:08:48;95485.31;;;11.02
30001;BMP280;16845;48.670;9.000;2023-08-07T03:11:14;95479.97;;;11.11
30001;BMP280;16845;48.670;9.000;2023-08-07T03:13:41;95475.25;;;11.02
30001;BMP280;16845;48.670;9.000;2023-08-07T03:16:07;95481.19;;;10.99
30001;BMP280;16845;48.670;9.000;2023-08-07T03:18:34;95481.53;;;11.15
30001;BMP280;16845;48.670;9.000;2023-08-07T03:21:02;95480.34;;;10.99
30001;BMP280;16845;48.670;9.000;2023-08-07T03:23:29;95483.56;;;11.04
30001;BMP280;16845;48.670;9.000;2023-08-07T03:26:02;95485.47;;;10.96
30001;BMP280;16845;48.670;9.000;2023-08-07T03:28:43;95488.97;;;10.92
30001;BMP280;16845;48.670;9.000;2023-08-07T03:31:10;95483.59;;;10.76
30001;BMP280;16845;48.670;9.000;2023-08-07T03:33:37;95495.94;;;10.82
30001;BMP280;16845;48.670;9.000;2023-08-07T03:36:05;95490.59;;;10.93
30001;BMP280;16845;48.670;9.000;2023-08-07T03:38:31;95494.47;;;11.03
30001;BMP280;16845;48.670;9.000;2023-08-07T03:40:58;95495.25;;;11.05
30001;BMP280;16845;48.670;9.000;2023-08-07T03:43:24;95488.66;;;11.01
30001;BMP280;16845;48.670;9.000;2023-08-07T03:45:54;95492.84;;;11.02
30001;BMP280;16845;48.670;9.000;2023-08-07T03:48:21;95490.22;;;11.05
30001;BMP280;16845;48.670;9.000;2023-08-07T03:50:47;95491.56;;;11.15
30001;BMP280;16845;48.670;9.000;2023-08-07T03:53:15;95486.69;;;11.10
30001;BMP280;16845;48.670;9.000;2023-08-07T03:55:42;95486.94;;;11.03
30001;BMP280;16845;48.670;9.000;2023-08-07T03:58:08;95493.56;;;10.78
30001;BMP280;16845;48.670;9.000;2023-08-07T04:00:35;95490.03;;;10.83
30001;BMP280;16845;48.670;9.000;2023-08-07T04:03:01;95497.44;;;10.88
30001;BMP280;16845;48.670;9.000;2023-08-07T04:05:32;95494.16;;;10.86
30001;BMP280;16845;48.670;9.000;2023-08-07T04:07:59;95497.63;;;10.54
30001;BMP280;16845;48.670;9.000;2023-08-07T04:10:27;95498.03;;;10.68
30001;BMP280;16845;48.670;9.000;2023-08-07T04:12:53;95492.88;;;10.73
30001;BMP280;16845;48.670;9.000;2023-08-07T04:15:20;95488.22;;;10.61
30001;BMP280;16845;48.670;9.000;2023-08-07T04:17:46;95495.66;;;10.64
30001;BMP280;16845;48.670;9.000;2023-08-07T04:20:13;95491.63;;;10.60
30001;BMP280;16845;48.670;9.000;2023-08-07T04:22:39;95500.88;;;10.58
30001;BMP280;16845;48.670;9.000;2023-08-07T04:25:06;95500.16;;;10.53
30001;BMP280;16845;48.670;9.000;2023-08-07T04:27:34;95502.81;;;10.48
30001;BMP280;16845;48.670;9.000;2023-08-07T04:30:01;95504.66;;;10.43
30001;BMP280;16845;48.670;9.000;2023-08-07T04:32:28;95505.19;;;10.53
30001;BMP280;16845;48.670;9.000;2023-08-07T04:34:54;95506.81;;;10.54
30001;BMP280;16845;48.670;9.000;2023-08-07T04:37:21;95507.75;;;10.51
30001;BMP280;16845;48.670;9.000;2023-08-07T04:39:47;95511.53;;;10.37
30001;BMP280;16845;48.670;9.000;2023-08-07T04:42:14;95514.53;;;10.48
30001;BMP280;16845;48.670;9.000;2023-08-07T04:44:42;95514.84;;;10.37
30001;BMP280;16845;48.670;9.000;2023-08-07T04:47:08;95506.28;;;10.44
30001;BMP280;16845;48.670;9.000;2023-08-07T04:49:34;95509.66;;;10.43
30001;BMP280;16845;48.670;9.000;2023-08-07T04:52:01;95513.06;;;10.70
30001;BMP280;16845;48.670;9.000;2023-08-07T04:54:46;95508.72;;;10.75
30001;BMP280;16845;48.670;9.000;2023-08-07T04:57:12;95512.56;;;10.59
30001;BMP280;16845;48.670;9.000;2023-08-07T04:59:39;95506.03;;;10.81
30001;BMP280;16845;48.670;9.000;2023-08-07T05:02:07;95517.88;;;10.76
30001;BMP280;16845;48.670;9.000;2023-08-07T05:04:33;95513.78;;;10.73
30001;BMP280;16845;48.670;9.000;2023-08-07T05:07:00;95520.22;;;10.82
30001;BMP280;16845;48.670;9.000;2023-08-07T05:09:26;95513.34;;;10.87
30001;BMP280;16845;48.670;9.000;2023-08-07T05:11:53;95521.00;;;10.84
30001;BMP280;16845;48.670;9.000;2023-08-07T05:14:20;95515.00;;;10.88
30001;BMP280;16845;48.670;9.000;2023-08-07T05:16:46;95515.31;;;11.05
30001;BMP280;16845;48.670;9.000;2023-08-07T05:19:14;95514.41;;;11.07
30001;BMP280;16845;48.670;9.000;2023-08-07T05:21:41;95512.75;;;11.06
30001;BMP280;16845;48.670;9.000;2023-08-07T05:24:07;95511.69;;;11.13
30001;BMP280;16845;48.670;9.000;2023-08-07T05:26:34;95516.84;;;11.09
30001;BMP280;16845;48.670;9.000;2023-08-07T05:29:00;95521.06;;;11.34
30001;BMP280;16845;48.670;9.000;2023-08-07T05:31:27;95519.84;;;11.46
30001;BMP280;16845;48.670;9.000;2023-08-07T05:33:55;95520.72;;;11.45
30001;BMP280;16845;48.670;9.000;2023-08-07T05:36:23;95524.19;;;11.67
30001;BMP280;16845;48.670;9.000;2023-08-07T05:38:49;95531.84;;;11.64
30001;BMP280;16845;48.670;9.000;2023-08-07T05:41:16;95529.59;;;11.80
30001;BMP280;16845;48.670;9.000;2023-08-07T05:43:42;95526.31;;;11.78
30001;BMP280;16845;48.670;9.000;2023-08-07T05:46:09;95530.72;;;11.96
30001;BMP280;16845;48.670;9.000;2023-08-07T05:48:35;95528.97;;;11.98
30001;BMP280;16845;48.670;9.000;2023-08-07T05:51:02;95531.09;;;12.09
30001;BMP280;16845;48.670;9.000;2023-08-07T05:53:30;95535.91;;;12.16
30001;BMP280;16845;48.670;9.000;2023-08-07T05:55:56;95542.25;;;12.26
30001;BMP280;16845;48.670;9.000;2023-08-07T05:58:23;95537.00;;;12.32
30001;BMP280;16845;48.670;9.000;2023-08-07T06:00:49;95545.34;;;12.10
30001;BMP280;16845;48.670;9.000;2023-08-07T06:03:16;95533.53;;;12.12
30001;BMP280;16845;48.670;9.000;2023-08-07T06:05:42;95549.44;;;12.35
30001;BMP280;16845;48.670;9.000;2023-08-07T06:08:09;95552.66;;;12.40
30001;BMP280;16845;48.670;9.000;2023-08-07T06:10:37;95547.38;;;12.46
30001;BMP280;16845;48.670;9.000;2023-08-07T06:13:03;95547.88;;;12.56
30001;BMP280;16845;48.670;9.000;2023-08-07T06:15:31;95553.41;;;12.65
30001;BMP280;16845;48.670;9.000;2023-08-07T06:17:58;95555.16;;;12.63
30001;BMP280;16845;48.670;9.000;2023-08-07T06:20:24;95551.31;;;12.76
30001;BMP280;16845;48.670;9.000;2023-08-07T06:22:51;95554.13;;;12.90
30001;BMP280;16845;48.670;9.000;2023-08-07T06:25:17;95566.28;;;12.79
30001;BMP280;16845;48.670;9.000;2023-08-07T06:27:45;95560.94;;;12.65
30001;BMP280;16845;48.670;9.000;2023-08-07T06:30:12;95567.06;;;12.81
30001;BMP280;16845;48.670;9.000;2023-08-07T06:32:39;95562.69;;;12.86
30001;BMP280;16845;48.670;9.000;2023-08-07T06:35:06;95569.53;;;12.60
30001;BMP280;16845;48.670;9.000;2023-08-07T06:37:32;95565.97;;;12.65
30001;BMP280;16845;48.670;9.000;2023-08-07T06:39:59;95574.44;;;12.86
30001;BMP280;16845;48.670;9.000;2023-08-07T06:42:25;95578.50;;;12.90
30001;BMP280;16845;48.670;9.000;2023-08-07T06:44:53;95576.78;;;13.13
30001;BMP280;16845;48.670;9.000;2023-08-07T06:47:20;95569.22;;;13.13
30001;BMP280;16845;48.670;9.000;2023-08-07T06:49:46;95576.91;;;13.10
30001;BMP280;16845;48.670;9.000;2023-08-07T06:52:13;95567.53;;;13.14
30001;BMP280;16845;48.670;9.000;2023-08-07T06:54:39;95567.88;;;13.26
30001;BMP280;16845;48.670;9.000;2023-08-07T06:57:06;95567.84;;;13.69
30001;BMP280;16845;48.670;9.000;2023-08-07T06:59:32;95575.66;;;13.83
30001;BMP280;16845;48.670;9.000;2023-08-07T07:02:00;95574.22;;;13.36
30001;BMP280;16845;48.670;9.000;2023-08-07T07:04:27;95590.97;;;13.59
30001;BMP280;16845;48.670;9.000;2023-08-07T07:06:53;95581.38;;;13.47
30001;BMP280;16845;48.670;9.000;2023-08-07T07:09:20;95571.06;;;13.31
30001;BMP280;16845;48.670;9.000;2023-08-07T07:11:46;95577.72;;;13.32
30001;BMP280;16845;48.670;9.000;2023-08-07T07:14:13;95583.53;;;13.76
30001;BMP280;16845;48.670;9.000;2023-08-07T07:16:39;95571.06;;;14.71
30001;BMP280;16845;48.670;9.000;2023-08-07T07:19:07;95574.19;;;15.67
30001;BMP280;16845;48.670;9.000;2023-08-07T07:21:33;95568.19;;;15.86
30001;BMP280;16845;48.670;9.000;2023-08-07T07:24:00;95574.41;;;16.47
30001;BMP280;16845;48.670;9.000;2023-08-07T07:26:27;95572.50;;;16.67
30001;BMP280;16845;48.670;9.000;2023-08-07T07:28:53;95567.72;;;16.12
30001;BMP280;16845;48.670;9.000;2023-08-07T07:31:20;95568.91;;;16.05
30001;BMP280;16845;48.670;9.000;2023-08-07T07:33:46;95583.41;;;16.53
30001;BMP280;16845;48.670;9.000;2023-08-07T07:36:18;95571.53;;;15.87
30001;BMP280;16845;48.670;9.000;2023-08-07T07:38:45;95568.81;;;15.39
30001;BMP280;16845;48.670;9.000;2023-08-07T07:41:12;95579.13;;;15.70
30001;BMP280;16845;48.670;9.000;2023-08-07T07:43:39;95579.56;;;16.29
30001;BMP280;16845;48.670;9.000;2023-08-07T07:46:05;95587.63;;;16.37
30001;BMP280;16845;48.670;9.000;2023-08-07T07:48:32;95584.16;;;16.55
30001;BMP280;16845;48.670;9.000;2023-08-07T07:50:59;95575.03;;;16.18
30001;BMP280;16845;48.670;9.000;2023-08-07T07:53:27;95585.69;;;16.89
30001;BMP280;16845;48.670;9.000;2023-08-07T07:55:54;95578.69;;;16.47
30001;BMP280;16845;48.670;9.000;2023-08-07T07:58:21;95570.31;;;16.11
30001;BMP280;16845;48.670;9.000;2023-08-07T08:00:47;95567.28;;;15.70
30001;BMP280;16845;48.670;9.000;2023-08-07T08:03:14;95581.66;;;15.87
30001;BMP280;16845;48.670;9.000;2023-08-07T08:05:40;95580.00;;;15.86
30001;BMP280;16845;48.670;9.000;2023-08-07T08:08:07;95587.16;;;16.12
30001;BMP280;16845;48.670;9.000;2023-08-07T08:10:35;95588.09;;;16.92
30001;BMP280;16845;48.670;9.000;2023-08-07T08:13:01;95582.38;;;17.35
30001;BMP280;16845;48.670;9.000;2023-08-07T08:15:28;95591.88;;;17.92
30001;BMP280;16845;48.670;9.000;2023-08-07T08:17:55;95579.53;;;17.86
30001;BMP280;16845;48.670;9.000;2023-08-07T08:20:21;95592.19;;;17.72
30001;BMP280;16845;48.670;9.000;2023-08-07T08:22:48;95585.22;;;17.29
30001;BMP280;16845;48.670;9.000;2023-08-07T08:25:14;95579.50;;;17.72
30001;BMP280;16845;48.670;9.000;2023-08-07T08:27:42;95583.41;;;17.78
30001;BMP280;16845;48.670;9.000;2023-08-07T08:30:09;95575.91;;;17.90
30001;BMP280;16845;48.670;9.000;2023-08-07T08:32:36;95580.69;;;18.68
30001;BMP280;16845;48.670;9.000;2023-08-07T08:35:02;95563.31;;;19.30
30001;BMP280;16845;48.670;9.000;2023-08-07T08:37:29;95584.06;;;18.54
30001;BMP280;16845;48.670;9.000;2023-08-07T08:39:55;95575.88;;;19.05
30001;BMP280;16845;48.670;9.000;2023-08-07T08:42:22;95567.25;;;20.01
30001;BMP280;16845;48.670;9.000;2023-08-07T08:44:51;95559.78;;;19.32
30001;BMP280;16845;48.670;9.000;2023-08-07T08:47:18;95559.53;;;19.23
30001;BMP280;16845;48.670;9.000;2023-08-07T08:49:47;95578.44;;;19.19
30001;BMP280;16845;48.670;9.000;2023-08-07T08:52:15;95586.00;;;20.00
30001;BMP280;16845;48.670;9.000;2023-08-07T08:54:42;95582.50;;;21.02
30001;BMP280;16845;48.670;9.000;2023-08-07T08:57:09;95580.25;;;21.59
30001;BMP280;16845;48.670;9.000;2023-08-07T08:59:37;95577.81;;;20.84
30001;BMP280;16845;48.670;9.000;2023-08-07T09:02:07;95581.28;;;21.08
30001;BMP280;16845;48.670;9.000;2023-08-07T09:04:34;95573.13;;;20.53
30001;BMP280;16845;48.670;9.000;2023-08-07T09:07:01;95574.88;;;21.38
30001;BMP280;16845;48.670;9.000;2023-08-07T09:09:28;95575.91;;;21.95
30001;BMP280;16845;48.670;9.000;2023-08-07T09:11:57;95583.13;;;22.92
30001;BMP280;16845;48.670;9.000;2023-08-07T09:14:27;95578.34;;;23.09
30001;BMP280;16845;48.670;9.000;2023-08-07T09:16:57;95578.47;;;22.29
30001;BMP280;16845;48.670;9.000;2023-08-07T09:19:26;95601.81;;;20.94
30001;BMP280;16845;48.670;9.000;2023-08-07T09:21:53;95605.69;;;21.48
30001;BMP280;16845;48.670;9.000;2023-08-07T09:24:19;95596.56;;;22.61
30001;BMP280;16845;48.670;9.000;2023-08-07T09:26:50;95591.56;;;21.55
30001;BMP280;16845;48.670;9.000;2023-08-07T09:29:17;95590.56;;;20.46
30001;BMP280;16845;48.670;9.000;2023-08-07T09:31:44;95600.88;;;20.06
30001;BMP280;16845;48.670;9.000;2023-08-07T09:34:10;95585.97;;;19.20
30001;BMP280;16845;48.670;9.000;2023-08-07T09:36:38;95600.09;;;19.38
30001;BMP280;16845;48.670;9.000;2023-08-07T09:39:05;95603.56;;;19.23
30001;BMP280;16845;48.670;9.000;2023-08-07T09:41:31;95611.75;;;18.87
30001;BMP280;16845;48.670;9.000;2023-08-07T09:43:58;95621.88;;;18.45
30001;BMP280;16845;48.670;9.000;2023-08-07T09:46:25;95614.09;;;18.18
30001;BMP280;16845;48.670;9.000;2023-08-07T09:48:57;95632.44;;;17.78
30001;BMP280;16845;48.670;9.000;2023-08-07T09:51:24;95636.69;;;17.78
30001;BMP280;16845;48.670;9.000;2023-08-07T09:53:53;95630.25;;;17.41
30001;BMP280;16845;48.670;9.000;2023-08-07T09:56:20;95650.44;;;16.95
30001;BMP280;16845;48.670;9.000;2023-08-07T09:58:47;95653.38;;;17.35
30001;BMP280;16845;48.670;9.000;2023-08-07T10:01:15;95642.69;;;18.51
30001;BMP280;16845;48.670;9.000;2023-08-07T10:03:43;95631.81;;;18.91
30001;BMP280;16845;48.670;9.000;2023-08-07T10:06:09;95639.25;;;18.66
30001;BMP280;16845;48.670;9.000;2023-08-07T10:08:36;95643.31;;;17.80
30001;BMP280;16845;48.670;9.000;2023-08-07T10:11:05;95651.09;;;18.22
30001;BMP280;16845;48.670;9.000;2023-08-07T10:13:32;95632.25;;;19.39
30001;BMP280;16845;48.670;9.000;2023-08-07T10:16:06;95620.91;;;19.45
30001;BMP280;16845;48.670;9.000;2023-08-07T10:18:32;95618.94;;;19.62
30001;BMP280;16845;48.670;9.000;2023-08-07T10:21:01;95642.81;;;19.74
30001;BMP280;16845;48.670;9.000;2023-08-07T10:23:27;95624.59;;;20.45
30001;BMP280;16845;48.670;9.000;2023-08-07T10:25:54;95637.34;;;21.45
30001;BMP280;16845;48.670;9.000;2023-08-07T10:28:22;95618.50;;;20.48
30001;BMP280;16845;48.670;9.000;2023-08-07T10:30:51;95634.66;;;19.69
30001;BMP280;16845;48.670;9.000;2023-08-07T10:33:18;95633.44;;;19.74
30001;BMP280;16845;48.670;9.000;2023-08-07T10:35:46;95631.78;;;19.47
30001;BMP280;16845;48.670;9.000;2023-08-07T10:38:13;95634.53;;;20.11
30001;BMP280;16845;48.670;9.000;2023-08-07T10:40:59;95638.72;;;19.98
30001;BMP280;16845;48.670;9.000;2023-08-07T10:43:27;95627.53;;;19.06
30001;BMP280;16845;48.670;9.000;2023-08-07T10:46:02;95631.19;;;18.30
30001;BMP280;16845;48.670;9.000;2023-08-07T10:48:29;95646.78;;;18.09
30001;BMP280;16845;48.670;9.000;2023-08-07T10:50:56;95651.81;;;17.33
30001;BMP280;16845;48.670;9.000;2023-08-07T10:53:29;95658.69;;;16.98
30001;BMP280;16845;48.670;9.000;2023-08-07T10:55:56;95657.75;;;16.84
30001;BMP280;16845;48.670;9.000;2023-08-07T10:58:23;95661.13;;;17.32
30001;BMP280;16845;48.670;9.000;2023-08-07T11:00:52;95640.84;;;19.91
30001;BMP280;16845;48.670;9.000;2023-08-07T11:03:40;95645.94;;;19.91
30001;BMP280;16845;48.670;9.000;2023-08-07T11:06:09;95654.31;;;18.69
30001;BMP280;16845;48.670;9.000;2023-08-07T11:08:35;95651.22;;;19.06
30001;BMP280;16845;48.670;9.000;2023-08-07T11:11:04;95653.34;;;18.28
30001;BMP280;16845;48.670;9.000;2023-08-07T11:13:31;95658.69;;;17.93
30001;BMP280;16845;48.670;9.000;2023-08-07T11:15:59;95661.41;;;17.74
30001;BMP280;16845;48.670;9.000;2023-08-07T11:18:27;95659.63;;;17.13
30001;BMP280;16845;48.670;9.000;2023-08-07T11:20:54;95667.41;;;17.58
30001;BMP280;16845;48.670;9.000;2023-08-07T11:23:22;95656.41;;;17.88
30001;BMP280;16845;48.670;9.000;2023-08-07T11:25:49;95662.50;;;19.30
30001;BMP280;16845;48.670;9.000;2023-08-07T11:28:18;95650.13;;;18.82
30001;BMP280;16845;48.670;9.000;2023-08-07T11:30:44;95643.94;;;18.58
30001;BMP280;16845;48.670;9.000;2023-08-07T11:33:12;95653.63;;;19.09
30001;BMP280;16845;48.670;9.000;2023-08-07T11:35:41;95649.66;;;18.48
30001;BMP280;16845;48.670;9.000;2023-08-07T11:38:07;95645.84;;;17.80
30001;BMP280;16845;48.670;9.000;2023-08-07T11:40:34;95662.34;;;17.10
30001;BMP280;16845;48.670;9.000;2023-08-07T11:43:01;95659.84;;;16.93
30001;BMP280;16845;48.670;9.000;2023-08-07T11:45:27;95658.72;;;16.49
30001;BMP280;16845;48.670;9.000;2023-08-07T11:47:55;95664.16;;;16.25
30001;BMP280;16845;48.670;9.000;2023-08-07T11:50:23;95662.19;;;16.13
30001;BMP280;16845;48.670;9.000;2023-08-07T11:52:50;95662.75;;;16.01
30001;BMP280;16845;48.670;9.000;2023-08-07T11:55:17;95663.84;;;15.78
30001;BMP280;16845;48.670;9.000;2023-08-07T11:57:46;95669.59;;;15.82
30001;BMP280;16845;48.670;9.000;2023-08-07T12:00:13;95670.59;;;15.78
30001;BMP280;16845;48.670;9.000;2023-08-07T12:02:41;95667.44;;;15.37
30001;BMP280;16845;48.670;9.000;2023-08-07T12:05:08;95675.44;;;15.47
30001;BMP280;16845;48.670;9.000;2023-08-07T12:07:36;95679.81;;;15.43
30001;BMP280;16845;48.670;9.000;2023-08-07T12:10:03;95683.31;;;15.21
30001;BMP280;16845;48.670;9.000;2023-08-07T12:12:32;95685.19;;;15.17
30001;BMP280;16845;48.670;9.000;2023-08-07T12:14:59;95680.78;;;15.02
30001;BMP280;16845;48.670;9.000;2023-08-07T12:17:26;95686.53;;;15.06
30001;BMP280;16845;48.670;9.000;2023-08-07T12:19:52;95694.59;;;15.14
30001;BMP280;16845;48.670;9.000;2023-08-07T12:22:19;95697.03;;;14.97
30001;BMP280;16845;48.670;9.000;2023-08-07T12:24:47;95694.41;;;14.80
30001;BMP280;16845;48.670;9.000;2023-08-07T12:27:13;95695.50;;;14.74
30001;BMP280;16845;48.670;9.000;2023-08-07T12:29:40;95697.13;;;14.95
30001;BMP280;16845;48.670;9.000;2023-08-07T12:32:07;95698.47;;;15.41
30001;BMP280;16845;48.670;9.000;2023-08-07T12:34:34;95685.16;;;15.91
30001;BMP280;16845;48.670;9.000;2023-08-07T12:37:20;95686.00;;;15.92
30001;BMP280;16845;48.670;9.000;2023-08-07T12:39:48;95685.91;;;15.93
30001;BMP280;16845;48.670;9.000;2023-08-07T12:42:17;95689.56;;;15.69
30001;BMP280;16845;48.670;9.000;2023-08-07T12:44:47;95692.09;;;15.69
30001;BMP280;16845;48.670;9.000;2023-08-07T12:47:13;95694.22;;;15.23
30001;BMP280;16845;48.670;9.000;2023-08-07T12:49:40;95703.84;;;14.95
30001;BMP280;16845;48.670;9.000;2023-08-07T12:52:06;95707.03;;;15.00
30001;BMP280;16845;48.670;9.000;2023-08-07T12:54:33;95723.63;;;15.05
30001;BMP280;16845;48.670;9.000;2023-08-07T12:57:01;95710.38;;;14.80
30001;BMP280;16845;48.670;9.000;2023-08-07T12:59:27;95719.91;;;14.34
30001;BMP280;16845;48.670;9.000;2023-08-07T13:01:54;95718.88;;;14.18
30001;BMP280;16845;48.670;9.000;2023-08-07T13:04:20;95710.66;;;14.13
30001;BMP280;16845;48.670;9.000;2023-08-07T13:06:47;95711.66;;;14.50
30001;BMP280;16845;48.670;9.000;2023-08-07T13:09:13;95712.22;;;15.15
30001;BMP280;16845;48.670;9.000;2023-08-07T13:11:40;95698.63;;;15.92
30001;BMP280;16845;48.670;9.000;2023-08-07T13:14:07;95692.38;;;16.51
30001;BMP280;16845;48.670;9.000;2023-08-07T13:16:34;95689.84;;;17.00
30001;BMP280;16845;48.670;9.000;2023-08-07T13:19:01;95688.28;;;17.30
30001;BMP280;16845;48.670;9.000;2023-08-07T13:21:30;95683.47;;;17.88
30001;BMP280;16845;48.670;9.000;2023-08-07T13:23:57;95682.28;;;18.24
30001;BMP280;16845;48.670;9.000;2023-08-07T13:26:24;95682.69;;;17.72
30001;BMP280;16845;48.670;9.000;2023-08-07T13:28:50;95686.06;;;17.09
30001;BMP280;16845;48.670;9.000;2023-08-07T13:31:18;95692.75;;;16.61
30001;BMP280;16845;48.670;9.000;2023-08-07T13:33:45;95702.97;;;16.24
30001;BMP280;16845;48.670;9.000;2023-08-07T13:36:11;95704.97;;;16.53
30001;BMP280;16845;48.670;9.000;2023-08-07T13:38:38;95694.78;;;17.98
30001;BMP280;16845;48.670;9.000;2023-08-07T13:41:04;95688.69;;;19.46
30001;BMP280;16845;48.670;9.000;2023-08-07T13:43:31;95686.16;;;20.39
30001;BMP280;16845;48.670;9.000;2023-08-07T13:45:57;95685.91;;;20.69
30001;BMP280;16845;48.670;9.000;2023-08-07T13:48:25;95679.38;;;20.65
30001;BMP280;16845;48.670;9.000;2023-08-07T13:50:51;95671.22;;;20.21
30001;BMP280;16845;48.670;9.000;2023-08-07T13:53:18;95672.34;;;19.76
30001;BMP280;16845;48.670;9.000;2023-08-07T13:55:46;95678.59;;;19.03
30001;BMP280;16845;48.670;9.000;2023-08-07T13:58:12;95683.31;;;19.22
30001;BMP280;16845;48.670;9.000;2023-08-07T14:00:39;95690.09;;;18.94
30001;BMP280;16845;48.670;9.000;2023-08-07T14:03:05;95680.09;;;18.91
30001;BMP280;16845;48.670;9.000;2023-08-07T14:05:33;95684.06;;;18.67
30001;BMP280;16845;48.670;9.000;2023-08-07T14:08:00;95676.63;;;18.64
30001;BMP280;16845;48.670;9.000;2023-08-07T14:10:27;95685.63;;;17.95